createdAt,value
2022-12-16T00:01:28.658Z,96363.41
2022-12-16T00:03:58.530Z,96353.97
2022-12-16T00:06:30.599Z,96363.22
2022-12-16T00:08:59.541Z,96357.53
2022-12-16T00:11:27.905Z,96366.78
2022-12-16T00:13:55.698Z,96366.03
2022-12-16T00:16:23.542Z,96365.41
2022-12-16T00:18:51.747Z,96375.19
2022-12-16T00:21:20.849Z,96376.16
2022-12-16T00:23:48.826Z,96360.47
2022-12-16T00:26:16.938Z,96357.69
2022-12-16T00:28:44.643Z,96357.75
2022-12-16T00:31:12.984Z,96357.44
2022-12-16T00:33:40.925Z,96361.44
2022-12-16T00:36:09.655Z,96359.66
2022-12-16T00:38:38.002Z,96364.91
2022-12-16T00:41:06.517Z,96369.19
2022-12-16T00:43:34.613Z,96375.31
2022-12-16T00:46:02.554Z,96368.22
2022-12-16T00:48:30.387Z,96369.75
2022-12-16T00:50:58.122Z,96375.97
2022-12-16T00:53:25.882Z,96378.28
2022-12-16T00:56:06.772Z,96381.63
2022-12-16T00:58:35.010Z,96390.22
2022-12-16T01:01:03.516Z,96392.84
2022-12-16T01:03:31.506Z,96397.91
2022-12-16T01:05:59.393Z,96407.44
2022-12-16T01:08:27.757Z,96395.84
2022-12-16T01:10:57.564Z,96396.69
2022-12-16T01:13:27.133Z,96407.16
2022-12-16T01:15:54.949Z,96403.47
2022-12-16T01:18:22.698Z,96405.88
2022-12-16T01:20:50.536Z,96406.25
2022-12-16T01:23:18.428Z,96407.97
2022-12-16T01:25:48.754Z,96414.91
2022-12-16T01:28:16.552Z,96411.66
2022-12-16T01:30:44.316Z,96414.19
2022-12-16T01:33:12.997Z,96410.47
2022-12-16T01:35:56.483Z,96411.31
2022-12-16T01:38:24.356Z,96408.41
2022-12-16T01:40:52.240Z,96408.72
2022-12-16T01:43:29.139Z,96414.25
2022-12-16T01:46:07.766Z,96410.94
2022-12-16T01:49:01.003Z,96416.59
2022-12-16T01:51:50.466Z,96413.31
2022-12-16T01:54:28.957Z,96417.16
2022-12-16T01:57:27.514Z,96426.28
2022-12-16T01:59:56.507Z,96422.81
2022-12-16T02:02:24.786Z,96429.53
2022-12-16T02:05:11.438Z,96439.53
2022-12-16T02:07:39.180Z,96434.97
2022-12-16T02:10:08.032Z,96437.88
2022-12-16T02:12:52.070Z,96436.75
2022-12-16T02:15:44.301Z,96449.88
2022-12-16T02:18:36.521Z,96456.44
2022-12-16T02:21:19.398Z,96451.66
2022-12-16T02:24:52.517Z,96457.50
2022-12-16T02:28:03.093Z,96451.97
2022-12-16T02:31:00.523Z,96444.66
2022-12-16T02:33:28.194Z,96449.91
2022-12-16T02:36:08.021Z,96446.72
2022-12-16T02:39:12.283Z,96448.31
2022-12-16T02:42:40.802Z,96450.06
2022-12-16T02:45:27.085Z,96446.69
2022-12-16T02:47:54.890Z,96451.69
2022-12-16T02:50:45.718Z,96444.50
2022-12-16T02:53:13.685Z,96452.50
2022-12-16T02:56:33.923Z,96459.47
2022-12-16T02:59:18.806Z,96463.66
2022-12-16T03:02:15.932Z,96470.13
2022-12-16T03:04:59.965Z,96471.66
2022-12-16T03:07:32.108Z,96470.72
2022-12-16T03:10:01.636Z,96477.63
2022-12-16T03:12:29.385Z,96477.53
2022-12-16T03:14:57.180Z,96475.88
2022-12-16T03:17:27.740Z,96472.28
2022-12-16T03:20:07.216Z,96481.06
2022-12-16T03:22:38.783Z,96484.72
2022-12-16T03:25:07.738Z,96484.97
2022-12-16T03:27:40.949Z,96483.72
2022-12-16T03:30:19.820Z,96486.91
2022-12-16T03:33:03.420Z,96487.44
2022-12-16T03:35:48.171Z,96484.19
2022-12-16T03:38:16.504Z,96492.50
2022-12-16T03:40:45.162Z,96489.91
2022-12-16T03:43:16.959Z,96492.78
2022-12-16T03:45:46.317Z,96502.03
2022-12-16T03:48:15.585Z,96504.03
2022-12-16T03:50:43.385Z,96506.41
2022-12-16T03:53:11.216Z,96507.31
2022-12-16T03:55:38.930Z,96502.56
2022-12-16T03:58:07.361Z,96499.16
2022-12-16T04:00:35.129Z,96511.84
2022-12-16T04:03:03.025Z,96513.22
2022-12-16T04:05:31.456Z,96514.72
2022-12-16T04:08:02.201Z,96523.69
2022-12-16T04:10:49.835Z,96516.69
2022-12-16T04:13:37.794Z,96517.25
2022-12-16T04:16:44.108Z,96523.75
2022-12-16T04:19:44.385Z,96522.09
2022-12-16T04:22:44.173Z,96528.41
2022-12-16T04:25:22.878Z,96528.19
2022-12-16T04:27:50.629Z,96531.22
2022-12-16T04:30:20.548Z,96529.06
2022-12-16T04:33:21.298Z,96540.22
2022-12-16T04:36:07.790Z,96538.47
2022-12-16T04:38:54.043Z,96533.06
2022-12-16T04:41:40.713Z,96535.19
2022-12-16T04:44:27.560Z,96539.00
2022-12-16T04:47:14.248Z,96545.38
2022-12-16T04:50:00.796Z,96543.19
2022-12-16T04:52:47.553Z,96554.59
2022-12-16T04:55:33.848Z,96550.53
2022-12-16T04:58:21.640Z,96562.47
2022-12-16T05:01:09.022Z,96568.63
2022-12-16T05:03:55.619Z,96571.44
2022-12-16T05:06:42.246Z,96578.94
2022-12-16T05:09:28.305Z,96574.66
2022-12-16T05:12:14.782Z,96573.28
2022-12-16T05:15:00.968Z,96573.06
2022-12-16T05:17:47.652Z,96582.75
2022-12-16T05:20:34.194Z,96584.72
2022-12-16T05:23:20.731Z,96583.69
2022-12-16T05:26:07.364Z,96585.88
2022-12-16T05:28:53.806Z,96590.19
2022-12-16T05:31:39.884Z,96590.34
2022-12-16T05:34:27.786Z,96600.63
2022-12-16T05:37:14.315Z,96601.13
2022-12-16T05:40:00.857Z,96610.72
2022-12-16T05:42:47.534Z,96609.81
2022-12-16T05:45:34.031Z,96611.59
2022-12-16T05:48:20.269Z,96619.94
2022-12-16T05:51:06.797Z,96627.22
2022-12-16T05:53:53.272Z,96625.63
2022-12-16T05:56:39.701Z,96623.00
2022-12-16T05:59:26.210Z,96634.97
2022-12-16T06:02:12.507Z,96643.47
2022-12-16T06:04:59.574Z,96646.84
2022-12-16T06:07:46.223Z,96650.31
2022-12-16T06:10:32.793Z,96659.31
2022-12-16T06:13:19.334Z,96663.81
2022-12-16T06:16:08.862Z,96672.53
2022-12-16T06:18:55.113Z,96669.53
2022-12-16T06:21:41.602Z,96678.72
2022-12-16T06:24:28.341Z,96671.72
2022-12-16T06:27:14.904Z,96679.22
2022-12-16T06:30:01.510Z,96681.53
2022-12-16T06:32:47.958Z,96689.31
2022-12-16T06:35:34.189Z,96686.22
2022-12-16T06:38:20.734Z,96695.97
2022-12-16T06:41:07.331Z,96703.63
2022-12-16T06:43:53.881Z,96708.16
2022-12-16T06:46:40.560Z,96712.31
2022-12-16T06:49:26.645Z,96722.78
2022-12-16T06:52:13.110Z,96724.56
2022-12-16T06:55:00.003Z,96726.34
2022-12-16T06:57:46.957Z,96729.44
2022-12-16T07:00:33.567Z,96732.53
2022-12-16T07:03:20.703Z,96739.69
2022-12-16T07:06:12.493Z,96747.31
2022-12-16T07:08:59.199Z,96760.38
2022-12-16T07:11:45.650Z,96766.44
2022-12-16T07:14:32.248Z,96772.03
2022-12-16T07:17:18.824Z,96773.72
2022-12-16T07:20:05.429Z,96770.84
2022-12-16T07:23:01.121Z,96772.88
2022-12-16T07:25:50.788Z,96781.31
2022-12-16T07:28:36.933Z,96778.56
2022-12-16T07:31:23.711Z,96786.06
2022-12-16T07:34:10.303Z,96789.38
2022-12-16T07:36:56.672Z,96796.88
2022-12-16T07:39:43.225Z,96799.38
2022-12-16T07:42:29.899Z,96795.97
2022-12-16T07:45:16.586Z,96802.97
2022-12-16T07:48:08.563Z,96811.19
2022-12-16T07:50:56.680Z,96812.50
2022-12-16T07:53:43.518Z,96814.03
2022-12-16T07:56:30.729Z,96815.97
2022-12-16T07:59:17.333Z,96819.06
2022-12-16T08:02:03.643Z,96822.97
2022-12-16T08:04:50.215Z,96828.59
2022-12-16T08:07:37.676Z,96839.88
2022-12-16T08:10:24.374Z,96841.41
2022-12-16T08:13:10.412Z,96853.03
2022-12-16T08:15:56.596Z,96854.13
2022-12-16T08:18:43.214Z,96860.09
2022-12-16T08:21:29.665Z,96866.28
2022-12-16T08:24:16.220Z,96867.63
2022-12-16T08:27:02.801Z,96870.59
2022-12-16T08:29:49.039Z,96879.00
2022-12-16T08:32:35.573Z,96877.13
2022-12-16T08:35:22.279Z,96885.13
2022-12-16T08:38:13.700Z,96883.22
2022-12-16T08:41:02.807Z,96892.03
2022-12-16T08:43:54.349Z,96897.84
2022-12-16T08:46:41.626Z,96891.84
2022-12-16T08:49:28.312Z,96897.22
2022-12-16T08:52:14.862Z,96905.94
2022-12-16T08:55:01.316Z,96912.41
2022-12-16T08:57:47.970Z,96913.25
2022-12-16T09:00:35.620Z,96914.03
2022-12-16T09:03:22.248Z,96924.47
2022-12-16T09:06:08.736Z,96926.88
2022-12-16T09:08:55.444Z,96925.63
2022-12-16T09:11:42.135Z,96933.47
2022-12-16T09:14:28.679Z,96934.94
2022-12-16T09:17:15.181Z,96938.22
2022-12-16T09:20:01.479Z,96950.09
2022-12-16T09:22:48.087Z,96947.22
2022-12-16T09:25:34.662Z,96953.56
2022-12-16T09:28:21.340Z,96961.06
2022-12-16T09:31:07.554Z,96966.47
2022-12-16T09:33:55.001Z,96958.41
2022-12-16T09:36:42.566Z,96962.66
2022-12-16T09:39:28.908Z,96965.50
2022-12-16T09:42:35.389Z,96961.50
2022-12-16T09:45:59.974Z,96976.94
2022-12-16T09:49:04.760Z,96976.31
2022-12-16T09:51:53.490Z,96973.69
2022-12-16T09:54:45.226Z,96978.34
2022-12-16T09:57:33.858Z,96983.59
2022-12-16T10:00:31.141Z,96985.22
2022-12-16T10:03:18.998Z,96982.66
2022-12-16T10:06:27.063Z,96981.03
2022-12-16T10:09:38.706Z,96974.00
2022-12-16T10:12:54.690Z,96976.06
2022-12-16T10:16:15.421Z,96972.34
2022-12-16T10:19:10.057Z,96975.16
2022-12-16T10:22:25.740Z,96975.34
2022-12-16T10:25:41.066Z,96973.63
2022-12-16T10:28:37.879Z,96973.63
2022-12-16T10:31:34.566Z,96970.31
2022-12-16T10:34:21.703Z,96974.41
2022-12-16T10:37:14.124Z,96985.84
2022-12-16T10:40:07.657Z,96992.00
2022-12-16T10:43:31.172Z,96986.88
2022-12-16T10:46:18.921Z,96989.56
2022-12-16T10:49:05.662Z,96978.66
2022-12-16T10:51:51.924Z,96998.00
2022-12-16T10:54:39.040Z,96987.63
2022-12-16T10:57:42.551Z,96994.63
2022-12-16T11:01:08.852Z,96999.66
2022-12-16T11:03:58.605Z,97009.09
2022-12-16T11:06:53.748Z,97009.31
2022-12-16T11:09:43.985Z,97011.88
2022-12-16T11:12:50.314Z,97008.03
2022-12-16T11:15:48.566Z,97003.09
2022-12-16T11:18:41.007Z,97003.00
2022-12-16T11:21:40.880Z,97005.84
2022-12-16T11:24:36.475Z,97005.03
2022-12-16T11:27:32.915Z,97012.78
2022-12-16T11:30:41.309Z,97003.50
2022-12-16T11:33:38.390Z,97008.84
2022-12-16T11:36:51.112Z,97023.41
2022-12-16T11:39:41.590Z,97028.63
2022-12-16T11:42:38.876Z,97021.41
2022-12-16T11:45:32.520Z,97031.13
2022-12-16T11:48:48.527Z,97026.47
2022-12-16T11:51:35.848Z,97040.91
2022-12-16T11:54:49.513Z,97031.44
2022-12-16T11:58:04.637Z,97039.34
2022-12-16T12:00:56.381Z,97041.28
2022-12-16T12:03:45.529Z,97045.09
2022-12-16T12:06:34.705Z,97048.28
2022-12-16T12:09:31.458Z,97058.53
2022-12-16T12:12:48.743Z,97065.03
2022-12-16T12:16:04.601Z,97066.56
2022-12-16T12:19:19.542Z,97069.56
2022-12-16T12:22:23.298Z,97069.84
2022-12-16T12:25:22.514Z,97076.69
2022-12-16T12:28:27.930Z,97085.28
2022-12-16T12:31:36.740Z,97079.22
2022-12-16T12:34:37.843Z,97086.31
2022-12-16T12:37:43.199Z,97079.25
2022-12-16T12:40:46.441Z,97076.94
2022-12-16T12:44:22.216Z,97084.22
2022-12-16T12:47:18.140Z,97087.78
2022-12-16T12:50:36.150Z,97093.69
2022-12-16T12:53:43.995Z,97089.66
2022-12-16T12:57:09.793Z,97091.44
2022-12-16T13:00:19.721Z,97098.13
2022-12-16T13:03:20.676Z,97085.75
2022-12-16T13:06:08.367Z,97100.28
2022-12-16T13:09:16.749Z,97098.63
2022-12-16T13:12:25.014Z,97099.56
2022-12-16T13:16:02.649Z,97114.84
2022-12-16T13:18:51.146Z,97107.25
2022-12-16T13:22:07.692Z,97110.63
2022-12-16T13:25:09.469Z,97120.84
2022-12-16T13:28:42.372Z,97118.50
2022-12-16T13:31:28.975Z,97134.56
2022-12-16T13:34:35.303Z,97127.50
2022-12-16T13:37:30.980Z,97135.03
2022-12-16T13:40:38.337Z,97142.19
2022-12-16T13:43:56.320Z,97146.19
2022-12-16T13:47:05.216Z,97145.06
2022-12-16T13:50:10.825Z,97158.84
2022-12-16T13:53:16.303Z,97157.28
2022-12-16T13:56:19.342Z,97162.94
2022-12-16T13:59:18.415Z,97166.63
2022-12-16T14:02:41.605Z,97167.16
2022-12-16T14:05:54.819Z,97178.75
2022-12-16T14:08:50.133Z,97180.63
2022-12-16T14:12:10.730Z,97199.56
2022-12-16T14:15:14.568Z,97201.34
2022-12-16T14:18:34.776Z,97203.59
2022-12-16T14:21:24.327Z,97201.09
2022-12-16T14:24:21.878Z,97202.03
2022-12-16T14:27:09.371Z,97213.09
2022-12-16T14:30:00.845Z,97218.88
2022-12-16T14:32:53.433Z,97223.91
2022-12-16T14:35:46.017Z,97222.91
2022-12-16T14:38:45.722Z,97231.44
2022-12-16T14:41:42.318Z,97238.13
2022-12-16T14:44:40.075Z,97242.22
2022-12-16T14:47:37.124Z,97244.22
2022-12-16T14:50:40.909Z,97246.19
2022-12-16T14:53:39.695Z,97255.97
2022-12-16T14:56:41.034Z,97258.84
2022-12-16T14:59:35.763Z,97262.59
2022-12-16T15:03:02.471Z,97259.22
2022-12-16T15:05:53.938Z,97264.44
2022-12-16T15:08:44.340Z,97263.13
2022-12-16T15:11:36.980Z,97267.00
2022-12-16T15:14:25.382Z,97267.13
2022-12-16T15:17:13.005Z,97273.81
2022-12-16T15:20:06.294Z,97276.16
2022-12-16T15:22:54.374Z,97280.38
2022-12-16T15:25:44.476Z,97285.19
2022-12-16T15:29:01.798Z,97281.03
2022-12-16T15:32:01.395Z,97286.97
2022-12-16T15:35:06.024Z,97279.81
2022-12-16T15:38:04.164Z,97288.47
2022-12-16T15:40:52.798Z,97301.59
2022-12-16T15:43:52.591Z,97313.13
2022-12-16T15:46:47.423Z,97319.72
2022-12-16T15:50:04.701Z,97321.22
2022-12-16T15:53:02.982Z,97331.56
2022-12-16T15:55:50.872Z,97330.75
2022-12-16T15:58:49.820Z,97335.72
2022-12-16T16:01:44.080Z,97337.88
2022-12-16T16:04:49.247Z,97342.16
2022-12-16T16:07:38.108Z,97353.06
2022-12-16T16:10:38.747Z,97364.81
2022-12-16T16:13:25.618Z,97367.69
2022-12-16T16:16:12.884Z,97359.34
2022-12-16T16:19:00.671Z,97371.69
2022-12-16T16:21:48.781Z,97364.97
2022-12-16T16:24:35.831Z,97380.81
2022-12-16T16:27:27.818Z,97381.53
2022-12-16T16:30:13.827Z,97380.72
2022-12-16T16:33:00.424Z,97389.09
2022-12-16T16:35:47.908Z,97396.75
2022-12-16T16:38:33.947Z,97396.97
2022-12-16T16:41:20.697Z,97399.28
2022-12-16T16:44:07.190Z,97395.78
2022-12-16T16:47:00.309Z,97393.94
2022-12-16T16:49:51.906Z,97398.72
2022-12-16T16:52:41.877Z,97405.13
2022-12-16T16:55:41.086Z,97411.09
2022-12-16T16:58:43.952Z,97406.91
2022-12-16T17:01:36.198Z,97414.88
2022-12-16T17:04:22.971Z,97408.59
2022-12-16T17:07:09.410Z,97416.03
2022-12-16T17:09:56.275Z,97428.69
2022-12-16T17:12:47.243Z,97431.81
2022-12-16T17:15:45.194Z,97432.25
2022-12-16T17:18:31.733Z,97445.63
2022-12-16T17:21:18.285Z,97439.50
2022-12-16T17:24:04.910Z,97448.38
2022-12-16T17:26:51.535Z,97446.59
2022-12-16T17:29:42.416Z,97454.66
2022-12-16T17:32:30.199Z,97462.66
2022-12-16T17:35:17.169Z,97460.03
2022-12-16T17:38:03.282Z,97456.34
2022-12-16T17:40:49.518Z,97458.03
2022-12-16T17:43:36.301Z,97463.06
2022-12-16T17:46:26.439Z,97468.44
2022-12-16T17:49:14.993Z,97476.72
2022-12-16T17:52:02.516Z,97482.81
2022-12-16T17:54:49.336Z,97481.19
2022-12-16T17:57:35.997Z,97490.06
2022-12-16T18:00:23.141Z,97484.91
2022-12-16T18:03:09.923Z,97496.34
2022-12-16T18:05:57.198Z,97486.97
2022-12-16T18:08:43.834Z,97482.97
2022-12-16T18:11:33.481Z,97484.16
2022-12-16T18:14:22.573Z,97494.88
2022-12-16T18:17:09.154Z,97499.22
2022-12-16T18:19:55.446Z,97501.13
2022-12-16T18:22:41.841Z,97505.47
2022-12-16T18:25:28.405Z,97509.94
2022-12-16T18:28:14.817Z,97508.84
2022-12-16T18:31:01.376Z,97522.97
2022-12-16T18:33:48.044Z,97524.06
2022-12-16T18:36:34.556Z,97524.06
2022-12-16T18:39:21.335Z,97522.28
2022-12-16T18:42:07.401Z,97527.91
2022-12-16T18:45:00.621Z,97529.44
2022-12-16T18:47:47.997Z,97534.38
2022-12-16T18:50:38.027Z,97541.53
2022-12-16T18:53:25.618Z,97539.94
2022-12-16T18:56:24.745Z,97541.78
2022-12-16T18:59:11.721Z,97550.16
2022-12-16T19:01:58.991Z,97548.44
2022-12-16T19:04:45.542Z,97553.63
2022-12-16T19:07:33.790Z,97557.47
2022-12-16T19:10:21.260Z,97563.72
2022-12-16T19:13:07.841Z,97562.72
2022-12-16T19:15:54.368Z,97563.78
2022-12-16T19:18:40.948Z,97571.78
2022-12-16T19:21:28.676Z,97579.97
2022-12-16T19:24:14.986Z,97582.66
2022-12-16T19:27:01.666Z,97591.75
2022-12-16T19:29:48.091Z,97599.69
2022-12-16T19:32:34.330Z,97596.16
2022-12-16T19:35:20.441Z,97601.81
2022-12-16T19:38:07.142Z,97602.66
2022-12-16T19:40:53.857Z,97611.38
2022-12-16T19:43:40.648Z,97616.66
2022-12-16T19:46:27.342Z,97619.09
2022-12-16T19:49:13.926Z,97616.38
2022-12-16T19:51:59.984Z,97621.63
2022-12-16T19:54:46.367Z,97628.59
2022-12-16T19:57:32.972Z,97627.66
2022-12-16T20:00:19.222Z,97630.50
2022-12-16T20:03:07.384Z,97635.22
2022-12-16T20:05:53.617Z,97642.16
2022-12-16T20:08:42.685Z,97638.19
2022-12-16T20:11:29.470Z,97647.69
2022-12-16T20:14:16.067Z,97652.38
2022-12-16T20:17:02.703Z,97657.88
2022-12-16T20:19:48.719Z,97666.97
2022-12-16T20:22:34.868Z,97669.75
2022-12-16T20:25:21.263Z,97670.78
2022-12-16T20:28:07.628Z,97678.00
2022-12-16T20:30:53.873Z,97681.34
2022-12-16T20:33:43.419Z,97682.00
2022-12-16T20:36:30.090Z,97678.63
2022-12-16T20:39:16.660Z,97681.44
2022-12-16T20:42:03.199Z,97680.22
2022-12-16T20:44:49.756Z,97685.91
2022-12-16T20:47:36.433Z,97688.28
2022-12-16T20:50:23.002Z,97678.53
2022-12-16T20:53:09.684Z,97687.44
2022-12-16T20:59:02.391Z,97688.69
2022-12-16T21:04:55.296Z,97705.84
2022-12-16T21:07:41.894Z,97697.56
2022-12-16T21:10:28.291Z,97713.97
2022-12-16T21:13:14.978Z,97715.53
2022-12-16T21:16:01.544Z,97717.22
2022-12-16T21:18:47.522Z,97717.41
2022-12-16T21:21:33.626Z,97723.84
2022-12-16T21:24:20.112Z,97727.22
2022-12-16T21:27:06.713Z,97725.88
2022-12-16T21:29:53.224Z,97729.78
2022-12-16T21:32:44.491Z,97725.19
2022-12-16T21:35:30.894Z,97736.88
2022-12-16T21:38:18.188Z,97743.88
2022-12-16T21:41:11.077Z,97743.88
2022-12-16T21:43:57.680Z,97755.47
2022-12-16T21:46:44.184Z,97757.72
2022-12-16T21:49:30.770Z,97760.72
2022-12-16T21:52:17.481Z,97755.59
2022-12-16T21:55:03.910Z,97756.69
2022-12-16T21:57:50.377Z,97766.41
2022-12-16T22:00:37.078Z,97767.63
2022-12-16T22:03:23.578Z,97774.63
2022-12-16T22:06:10.034Z,97777.41
2022-12-16T22:08:56.698Z,97782.94
2022-12-16T22:11:43.232Z,97792.25
2022-12-16T22:14:29.478Z,97793.53
2022-12-16T22:17:16.076Z,97794.09
2022-12-16T22:20:02.524Z,97801.84
2022-12-16T22:22:49.195Z,97813.31
2022-12-16T22:25:35.895Z,97811.75
2022-12-16T22:28:22.452Z,97817.84
2022-12-16T22:31:16.468Z,97818.66
2022-12-16T22:34:06.714Z,97830.41
2022-12-16T22:36:53.442Z,97832.69
2022-12-16T22:42:49.790Z,97831.97
2022-12-16T22:45:36.344Z,97837.59
2022-12-16T22:48:22.664Z,97837.25
2022-12-16T22:51:09.388Z,97839.78
2022-12-16T22:53:56.136Z,97836.31
2022-12-16T22:56:42.982Z,97846.28
2022-12-16T22:59:29.524Z,97860.44
2022-12-16T23:02:16.101Z,97854.38
2022-12-16T23:05:02.676Z,97857.59
2022-12-16T23:07:49.358Z,97861.34
2022-12-16T23:10:35.665Z,97860.72
2022-12-16T23:13:21.904Z,97868.09
2022-12-16T23:16:08.427Z,97867.06
2022-12-16T23:18:56.642Z,97870.09
2022-12-16T23:21:43.278Z,97875.59
2022-12-16T23:24:30.363Z,97871.72
2022-12-16T23:27:16.777Z,97864.28
2022-12-16T23:30:03.265Z,97867.41
2022-12-16T23:32:49.874Z,97866.22
2022-12-16T23:35:36.221Z,97868.75
2022-12-16T23:38:25.633Z,97858.31
2022-12-16T23:41:18.350Z,97871.28
2022-12-16T23:44:04.844Z,97864.53
2022-12-16T23:46:51.561Z,97863.75
2022-12-16T23:49:40.065Z,97866.56
2022-12-16T23:52:26.363Z,97878.13
2022-12-16T23:55:12.973Z,97872.38
2022-12-16T23:57:59.653Z,97873.50
